createdAt,value
2019-03-16T00:02:04.737Z,5.30
2019-03-16T00:04:32.090Z,10.73
2019-03-16T00:06:59.653Z,7.17
2019-03-16T00:09:27.082Z,4.20
2019-03-16T00:11:54.627Z,5.03
2019-03-16T00:14:22.143Z,10.10
2019-03-16T00:16:49.544Z,9.27
2019-03-16T00:19:17.002Z,7.23
2019-03-16T00:21:44.447Z,4.33
2019-03-16T00:24:11.936Z,3.27
2019-03-16T00:26:39.388Z,7.33
2019-03-16T00:29:06.807Z,4.93
2019-03-16T00:31:34.401Z,4.43
2019-03-16T00:34:01.871Z,5.10
2019-03-16T00:36:29.294Z,8.03
2019-03-16T00:38:56.721Z,7.27
2019-03-16T00:41:24.213Z,11.57
2019-03-16T00:43:51.582Z,7.70
2019-03-16T00:46:19.033Z,7.53
2019-03-16T00:48:46.437Z,4.83
2019-03-16T00:51:13.871Z,7.00
2019-03-16T00:53:41.283Z,8.00
2019-03-16T00:56:08.685Z,3.83
2019-03-16T00:58:36.071Z,6.23
2019-03-16T01:01:03.633Z,6.70
2019-03-16T01:03:30.999Z,8.93
2019-03-16T01:05:58.385Z,6.53
2019-03-16T01:08:25.802Z,5.60
2019-03-16T01:10:53.192Z,4.57
2019-03-16T01:13:20.657Z,6.20
2019-03-16T01:15:48.027Z,6.50
2019-03-16T01:18:15.481Z,6.97
2019-03-16T01:20:42.847Z,6.87
2019-03-16T01:23:10.287Z,9.60
2019-03-16T01:25:37.648Z,6.67
2019-03-16T01:28:05.069Z,8.77
2019-03-16T01:30:32.437Z,5.97
2019-03-16T01:32:59.822Z,5.47
2019-03-16T01:35:27.252Z,4.33
2019-03-16T01:37:54.716Z,3.77
2019-03-16T01:40:22.130Z,8.37
2019-03-16T01:42:49.572Z,9.27
2019-03-16T01:45:17.067Z,6.63
2019-03-16T01:47:44.664Z,8.83
2019-03-16T01:50:13.067Z,8.90
2019-03-16T01:52:40.687Z,7.47
2019-03-16T01:55:08.453Z,4.83
2019-03-16T01:57:35.861Z,6.07
2019-03-16T02:00:04.233Z,6.83
2019-03-16T02:02:31.637Z,6.07
2019-03-16T02:04:59.052Z,7.50
2019-03-16T02:07:26.474Z,7.73
2019-03-16T02:09:53.942Z,3.27
2019-03-16T02:12:21.627Z,8.70
2019-03-16T02:14:49.002Z,9.93
2019-03-16T02:17:16.615Z,10.93
2019-03-16T02:19:44.030Z,13.33
2019-03-16T02:22:11.467Z,8.40
2019-03-16T02:24:38.842Z,8.37
2019-03-16T02:27:06.277Z,10.20
2019-03-16T02:29:33.732Z,9.57
2019-03-16T02:32:01.165Z,10.87
2019-03-16T02:34:28.529Z,7.17
2019-03-16T02:36:56.949Z,5.83
2019-03-16T02:39:24.392Z,8.53
2019-03-16T02:41:51.778Z,5.60
2019-03-16T02:44:19.210Z,5.53
2019-03-16T02:46:47.089Z,5.77
2019-03-16T02:49:14.500Z,5.90
2019-03-16T02:51:41.864Z,8.10
2019-03-16T02:54:09.350Z,8.30
2019-03-16T02:56:36.732Z,5.80
2019-03-16T02:59:04.259Z,6.00
2019-03-16T03:01:31.634Z,7.73
2019-03-16T03:03:59.077Z,7.43
2019-03-16T03:06:26.495Z,3.40
2019-03-16T03:08:53.929Z,5.40
2019-03-16T03:11:21.324Z,14.17
2019-03-16T03:13:48.742Z,6.60
2019-03-16T03:16:16.154Z,6.13
2019-03-16T03:18:43.580Z,9.10
2019-03-16T03:21:12.834Z,11.50
2019-03-16T03:23:40.277Z,12.10
2019-03-16T03:26:07.632Z,6.77
2019-03-16T03:28:35.052Z,8.30
2019-03-16T03:31:02.411Z,7.37
2019-03-16T03:33:56.095Z,4.67
2019-03-16T03:35:59.149Z,6.53
2019-03-16T03:38:26.602Z,15.60
2019-03-16T03:40:53.970Z,9.03
2019-03-16T03:43:21.378Z,10.93
2019-03-16T03:45:48.768Z,8.10
2019-03-16T03:48:16.185Z,9.27
2019-03-16T03:50:43.527Z,6.57
2019-03-16T03:53:10.990Z,9.13
2019-03-16T03:55:38.455Z,4.93
2019-03-16T03:58:05.854Z,7.43
2019-03-16T04:00:33.228Z,6.40
2019-03-16T04:03:00.649Z,5.37
2019-03-16T04:05:28.069Z,8.10
2019-03-16T04:07:55.498Z,7.90
2019-03-16T04:10:22.887Z,12.30
2019-03-16T04:12:50.346Z,9.37
2019-03-16T04:15:18.244Z,9.13
2019-03-16T04:17:45.649Z,7.13
2019-03-16T04:20:13.157Z,9.53
2019-03-16T04:22:40.518Z,9.50
2019-03-16T04:25:07.948Z,4.10
2019-03-16T04:27:35.291Z,8.03
2019-03-16T04:30:02.725Z,5.77
2019-03-16T04:32:30.212Z,9.30
2019-03-16T04:34:57.633Z,7.10
2019-03-16T04:37:25.018Z,11.53
2019-03-16T04:39:52.428Z,8.00
2019-03-16T04:42:19.807Z,7.07
2019-03-16T04:44:47.252Z,13.77
2019-03-16T04:47:14.637Z,6.70
2019-03-16T04:49:42.028Z,10.43
2019-03-16T04:52:09.387Z,5.27
2019-03-16T04:54:36.853Z,6.43
2019-03-16T04:57:04.222Z,9.80
2019-03-16T04:59:31.663Z,8.93
2019-03-16T05:01:59.027Z,7.47
2019-03-16T05:04:26.953Z,8.67
2019-03-16T05:06:54.327Z,5.70
2019-03-16T05:09:21.733Z,6.93
2019-03-16T05:11:49.092Z,5.67
2019-03-16T05:14:16.528Z,5.37
2019-03-16T05:16:43.903Z,3.27
2019-03-16T05:19:11.313Z,5.13
2019-03-16T05:21:38.686Z,6.93
2019-03-16T05:24:06.117Z,9.03
2019-03-16T05:26:33.515Z,7.70
2019-03-16T05:29:00.907Z,6.57
2019-03-16T05:31:28.322Z,8.33
2019-03-16T05:33:55.693Z,6.50
2019-03-16T05:36:23.132Z,4.73
2019-03-16T05:38:50.477Z,5.17
2019-03-16T05:41:17.897Z,3.83
2019-03-16T05:43:45.283Z,12.40
2019-03-16T05:46:12.672Z,5.77
2019-03-16T05:48:40.069Z,7.80
2019-03-16T05:51:07.492Z,7.60
2019-03-16T05:53:34.914Z,5.67
2019-03-16T05:56:02.307Z,4.30
2019-03-16T05:58:29.667Z,6.87
2019-03-16T06:00:57.062Z,7.67
2019-03-16T06:03:24.466Z,6.00
2019-03-16T06:05:51.898Z,5.37
2019-03-16T06:08:19.272Z,7.27
2019-03-16T06:10:46.710Z,5.33
2019-03-16T06:13:14.065Z,4.40
2019-03-16T06:15:41.482Z,6.60
2019-03-16T06:18:08.866Z,7.63
2019-03-16T06:20:36.292Z,5.33
2019-03-16T06:23:03.649Z,7.03
2019-03-16T06:25:31.091Z,8.20
2019-03-16T06:27:58.433Z,7.20
2019-03-16T06:30:25.887Z,5.37
2019-03-16T06:32:53.247Z,5.43
2019-03-16T06:35:26.383Z,5.20
2019-03-16T06:37:49.942Z,7.20
2019-03-16T06:40:17.387Z,6.00
2019-03-16T06:42:44.755Z,4.53
2019-03-16T06:45:12.284Z,8.23
2019-03-16T06:47:39.667Z,11.23
2019-03-16T06:50:08.092Z,6.10
2019-03-16T06:52:36.769Z,6.33
2019-03-16T06:55:04.412Z,8.30
2019-03-16T06:57:31.797Z,8.27
2019-03-16T06:59:59.167Z,7.93
2019-03-16T07:02:26.632Z,7.60
2019-03-16T07:04:54.012Z,5.50
2019-03-16T07:07:21.447Z,5.47
2019-03-16T07:09:48.806Z,7.33
2019-03-16T07:12:16.227Z,5.20
2019-03-16T07:14:43.612Z,7.60
2019-03-16T07:17:11.051Z,9.63
2019-03-16T07:19:38.483Z,8.73
2019-03-16T07:22:05.892Z,10.63
2019-03-16T07:24:33.247Z,7.23
2019-03-16T07:27:00.667Z,8.27
2019-03-16T07:29:28.078Z,5.30
2019-03-16T07:31:55.692Z,9.30
2019-03-16T07:34:23.075Z,9.47
2019-03-16T07:36:50.471Z,7.57
2019-03-16T07:39:17.862Z,9.10
2019-03-16T07:41:45.287Z,6.23
2019-03-16T07:44:12.699Z,9.10
2019-03-16T07:46:40.191Z,9.70
2019-03-16T07:49:07.572Z,8.53
2019-03-16T07:51:35.094Z,7.67
2019-03-16T07:54:02.555Z,10.80
2019-03-16T07:56:29.967Z,8.23
2019-03-16T07:58:57.363Z,10.27
2019-03-16T08:01:24.802Z,5.13
2019-03-16T08:03:52.182Z,4.47
2019-03-16T08:06:19.607Z,11.23
2019-03-16T08:08:46.999Z,11.23
2019-03-16T08:11:14.471Z,7.70
2019-03-16T08:13:41.854Z,7.30
2019-03-16T08:16:09.272Z,9.83
2019-03-16T08:18:39.187Z,12.73
2019-03-16T08:21:06.602Z,8.80
2019-03-16T08:23:34.008Z,6.03
2019-03-16T08:26:01.412Z,6.53
2019-03-16T08:28:29.068Z,8.57
2019-03-16T08:30:56.976Z,11.27
2019-03-16T08:33:24.446Z,16.63
2019-03-16T08:35:51.847Z,13.10
2019-03-16T08:38:19.272Z,9.90
2019-03-16T08:40:46.633Z,9.67
2019-03-16T08:43:14.092Z,12.27
2019-03-16T08:45:41.792Z,15.00
2019-03-16T08:48:21.812Z,12.73
2019-03-16T08:50:39.267Z,10.73
2019-03-16T08:53:06.697Z,14.63
2019-03-16T08:55:34.142Z,15.50
2019-03-16T08:58:06.029Z,9.80
2019-03-16T09:00:30.847Z,10.63
2019-03-16T09:02:58.289Z,10.93
2019-03-16T09:05:25.667Z,10.13
2019-03-16T09:07:53.092Z,15.60
2019-03-16T09:10:20.482Z,10.23
2019-03-16T09:12:55.000Z,9.50
2019-03-16T09:15:17.287Z,8.30
2019-03-16T09:17:46.323Z,8.53
2019-03-16T09:20:13.799Z,7.37
2019-03-16T09:22:41.598Z,9.73
2019-03-16T09:25:09.026Z,9.60
2019-03-16T09:27:36.546Z,9.67
2019-03-16T09:30:04.673Z,9.67
2019-03-16T09:32:32.101Z,8.00
2019-03-16T09:34:59.526Z,11.07
2019-03-16T09:37:26.913Z,10.87
2019-03-16T09:39:54.261Z,9.07
2019-03-16T09:42:21.667Z,11.90
2019-03-16T09:44:49.008Z,9.20
2019-03-16T09:47:16.432Z,8.43
2019-03-16T09:49:45.504Z,6.80
2019-03-16T09:52:12.960Z,11.77
2019-03-16T09:54:40.427Z,8.10
2019-03-16T09:57:07.842Z,10.47
2019-03-16T09:59:35.241Z,9.83
2019-03-16T10:02:02.726Z,9.93
2019-03-16T10:04:30.137Z,9.70
2019-03-16T10:06:57.572Z,14.00
2019-03-16T10:09:24.951Z,10.87
2019-03-16T10:11:52.362Z,10.93
2019-03-16T10:14:19.889Z,9.90
2019-03-16T10:16:47.274Z,10.90
2019-03-16T10:19:14.694Z,13.73
2019-03-16T10:21:42.122Z,7.87
2019-03-16T10:24:09.547Z,12.40
2019-03-16T10:26:37.681Z,12.57
2019-03-16T10:29:05.212Z,11.93
2019-03-16T10:31:32.607Z,12.03
2019-03-16T10:34:00.008Z,12.73
2019-03-16T10:36:27.427Z,12.03
2019-03-16T10:38:54.909Z,10.27
2019-03-16T10:41:22.318Z,11.37
2019-03-16T10:43:53.107Z,8.93
2019-03-16T10:46:36.107Z,9.73
2019-03-16T10:49:03.640Z,12.90
2019-03-16T10:51:31.036Z,10.37
2019-03-16T10:53:58.622Z,8.97
2019-03-16T10:56:26.017Z,8.77
2019-03-16T10:58:56.743Z,8.50
2019-03-16T11:01:22.758Z,9.73
2019-03-16T11:03:50.196Z,8.53
2019-03-16T11:06:17.609Z,8.17
2019-03-16T11:08:45.055Z,8.47
2019-03-16T11:11:12.467Z,10.70
2019-03-16T11:13:39.872Z,9.57
2019-03-16T11:16:07.301Z,7.93
2019-03-16T11:18:34.734Z,11.53
2019-03-16T11:21:02.127Z,8.23
2019-03-16T11:23:29.647Z,8.57
2019-03-16T11:25:57.428Z,9.00
2019-03-16T11:28:24.887Z,7.93
2019-03-16T11:30:54.307Z,8.50
2019-03-16T11:33:21.829Z,9.17
2019-03-16T11:35:49.387Z,9.17
2019-03-16T11:38:16.908Z,7.50
2019-03-16T11:40:44.312Z,8.07
2019-03-16T11:43:11.687Z,6.33
2019-03-16T11:45:39.097Z,7.90
2019-03-16T11:48:06.502Z,7.13
2019-03-16T11:50:33.873Z,11.27
2019-03-16T11:53:01.378Z,8.00
2019-03-16T11:55:28.823Z,7.83
2019-03-16T11:57:56.292Z,7.80
2019-03-16T12:00:23.792Z,9.00
2019-03-16T12:02:52.836Z,10.63
2019-03-16T12:05:20.732Z,8.73
2019-03-16T12:07:48.115Z,10.40
2019-03-16T12:10:15.642Z,8.90
2019-03-16T12:12:43.069Z,7.43
2019-03-16T12:15:10.873Z,9.67
2019-03-16T12:17:38.307Z,8.40
2019-03-16T12:20:06.653Z,9.83
2019-03-16T12:22:34.128Z,9.03
2019-03-16T12:25:01.583Z,8.73
2019-03-16T12:27:28.948Z,7.17
2019-03-16T12:29:56.517Z,7.97
2019-03-16T12:32:23.923Z,8.67
2019-03-16T12:34:51.362Z,6.47
2019-03-16T12:37:18.763Z,6.07
2019-03-16T12:39:46.187Z,7.13
2019-03-16T12:42:13.577Z,7.33
2019-03-16T12:44:41.089Z,8.27
2019-03-16T12:47:10.472Z,7.70
2019-03-16T12:49:38.007Z,4.97
2019-03-16T12:52:05.478Z,6.37
2019-03-16T12:54:33.024Z,8.43
2019-03-16T12:57:00.673Z,7.77
2019-03-16T12:59:28.166Z,7.10
2019-03-16T13:01:55.687Z,5.97
2019-03-16T13:04:23.312Z,5.57
2019-03-16T13:06:50.928Z,5.00
2019-03-16T13:09:18.397Z,5.23
2019-03-16T13:11:45.960Z,4.67
2019-03-16T13:14:13.552Z,4.83
2019-03-16T13:16:41.056Z,5.57
2019-03-16T13:19:08.598Z,4.77
2019-03-16T13:21:36.097Z,7.57
2019-03-16T13:24:03.778Z,4.40
2019-03-16T13:26:31.408Z,4.77
2019-03-16T13:28:59.242Z,4.40
2019-03-16T13:31:26.713Z,5.23
2019-03-16T13:33:54.229Z,4.67
2019-03-16T13:36:21.747Z,6.97
2019-03-16T13:38:49.362Z,5.57
2019-03-16T13:41:17.202Z,5.13
2019-03-16T13:43:44.968Z,4.17
2019-03-16T13:46:12.727Z,5.23
2019-03-16T13:48:40.277Z,4.30
2019-03-16T13:51:08.113Z,6.43
2019-03-16T13:53:35.833Z,5.33
2019-03-16T13:56:04.037Z,5.60
2019-03-16T13:58:31.812Z,4.87
2019-03-16T14:00:59.852Z,4.60
2019-03-16T14:03:27.501Z,3.47
2019-03-16T14:05:55.348Z,5.73
2019-03-16T14:08:22.882Z,5.23
2019-03-16T14:10:53.337Z,6.03
2019-03-16T14:13:21.395Z,5.13
2019-03-16T14:15:49.123Z,4.97
2019-03-16T14:18:16.828Z,4.67
2019-03-16T14:20:44.582Z,5.93
2019-03-16T14:23:12.242Z,4.50
2019-03-16T14:25:40.277Z,4.53
2019-03-16T14:28:08.048Z,4.77
2019-03-16T14:30:41.777Z,6.10
2019-03-16T14:33:05.607Z,3.00
2019-03-16T14:35:33.597Z,4.23
2019-03-16T14:38:01.742Z,4.40
2019-03-16T14:40:29.520Z,4.33
2019-03-16T14:42:57.092Z,6.00
2019-03-16T14:45:25.441Z,4.40
2019-03-16T14:47:57.652Z,4.83
2019-03-16T14:50:25.328Z,3.50
2019-03-16T14:52:53.082Z,3.87
2019-03-16T14:55:20.959Z,5.23
2019-03-16T14:57:53.472Z,4.83
2019-03-16T15:00:21.062Z,5.63
2019-03-16T15:02:48.650Z,3.60
2019-03-16T15:05:16.536Z,5.20
2019-03-16T15:07:44.313Z,3.43
2019-03-16T15:10:12.190Z,3.70
2019-03-16T15:12:39.882Z,4.27
2019-03-16T15:15:09.434Z,4.60
2019-03-16T15:17:37.323Z,4.27
2019-03-16T15:20:05.472Z,3.73
2019-03-16T15:22:33.267Z,3.37
2019-03-16T15:25:02.351Z,3.83
2019-03-16T15:27:30.032Z,3.73
2019-03-16T15:30:27.822Z,3.30
2019-03-16T15:33:05.363Z,3.33
2019-03-16T15:36:02.986Z,4.33
2019-03-16T15:39:15.044Z,3.03
2019-03-16T15:42:04.461Z,4.20
2019-03-16T15:44:38.255Z,3.03
2019-03-16T15:47:30.035Z,2.47
2019-03-16T15:50:10.303Z,3.67
2019-03-16T15:53:51.921Z,2.50
2019-03-16T15:55:51.204Z,3.10
2019-03-16T15:58:24.720Z,3.20
2019-03-16T16:01:49.943Z,3.77
2019-03-16T16:04:18.738Z,3.57
2019-03-16T16:06:46.724Z,2.77
2019-03-16T16:09:14.545Z,1.87
2019-03-16T16:11:42.402Z,3.00
2019-03-16T16:14:10.098Z,4.03
2019-03-16T16:16:38.052Z,3.67
2019-03-16T16:19:06.307Z,3.87
2019-03-16T16:21:36.928Z,3.63
2019-03-16T16:24:08.010Z,2.87
2019-03-16T16:26:35.927Z,3.83
2019-03-16T16:29:03.871Z,3.33
2019-03-16T16:31:31.835Z,3.87
2019-03-16T16:34:02.690Z,4.87
2019-03-16T16:36:29.523Z,3.57
2019-03-16T16:38:57.646Z,4.87
2019-03-16T16:41:25.916Z,3.63
2019-03-16T16:43:53.742Z,3.73
2019-03-16T16:46:21.802Z,3.73
2019-03-16T16:48:49.472Z,6.43
2019-03-16T16:51:20.032Z,3.47
2019-03-16T16:53:48.072Z,3.40
2019-03-16T16:56:18.522Z,3.27
2019-03-16T16:58:46.291Z,2.50
2019-03-16T17:01:28.513Z,3.03
2019-03-16T17:03:44.892Z,2.27
2019-03-16T17:06:12.762Z,3.00
2019-03-16T17:08:40.839Z,1.90
2019-03-16T17:11:12.874Z,2.60
2019-03-16T17:13:42.762Z,2.63
2019-03-16T17:16:17.427Z,3.83
2019-03-16T17:18:48.072Z,2.83
2019-03-16T17:21:24.162Z,2.23
2019-03-16T17:23:52.147Z,3.23
2019-03-16T17:26:21.020Z,2.77
2019-03-16T17:28:48.877Z,2.20
2019-03-16T17:31:16.772Z,2.83
2019-03-16T17:33:44.647Z,3.70
2019-03-16T17:36:12.437Z,2.37
2019-03-16T17:39:20.737Z,2.07
2019-03-16T17:41:50.789Z,2.27
2019-03-16T17:44:34.701Z,2.13
2019-03-16T17:47:44.646Z,1.70
2019-03-16T17:57:28.507Z,3.23
2019-03-16T18:00:05.338Z,3.80
2019-03-16T18:02:34.832Z,2.17
2019-03-16T18:05:06.256Z,2.17
2019-03-16T18:07:34.188Z,4.20
2019-03-16T18:10:01.919Z,2.87
2019-03-16T18:12:29.901Z,2.17
2019-03-16T18:14:57.857Z,1.93
2019-03-16T18:17:25.652Z,2.60
2019-03-16T18:19:53.367Z,2.10
2019-03-16T18:22:21.218Z,2.57
2019-03-16T18:24:49.213Z,3.40
2019-03-16T18:27:29.672Z,4.30
2019-03-16T18:30:00.168Z,2.83
2019-03-16T18:32:28.507Z,4.23
2019-03-16T18:34:56.347Z,5.93
2019-03-16T18:37:24.162Z,2.87
2019-03-16T18:39:52.127Z,2.97
2019-03-16T18:42:20.063Z,2.80
2019-03-16T18:44:49.997Z,2.93
2019-03-16T18:47:17.943Z,2.60
2019-03-16T18:49:56.490Z,2.90
2019-03-16T18:53:09.142Z,5.73
2019-03-16T18:55:37.967Z,2.57
2019-03-16T18:58:37.696Z,3.87
2019-03-16T19:01:43.737Z,2.40
2019-03-16T19:05:34.696Z,4.03
2019-03-16T19:08:16.047Z,3.10
2019-03-16T19:11:22.766Z,3.87
2019-03-16T19:15:12.086Z,3.50
2019-03-16T19:25:25.890Z,3.67
2019-03-16T19:29:10.994Z,5.37
2019-03-16T19:38:42.496Z,2.40
2019-03-16T19:41:12.427Z,5.13
2019-03-16T19:43:40.328Z,3.47
2019-03-16T19:46:14.979Z,2.80
2019-03-16T19:48:42.956Z,5.70
2019-03-16T19:51:13.896Z,2.67
2019-03-16T19:53:41.730Z,3.47
2019-03-16T19:56:12.801Z,2.67
2019-03-16T19:59:00.235Z,5.10
2019-03-16T20:01:20.153Z,2.97
2019-03-16T20:03:48.326Z,7.73
2019-03-16T20:06:26.291Z,4.37
2019-03-16T20:15:03.025Z,3.20
2019-03-16T20:21:20.235Z,4.33
2019-03-16T20:21:57.170Z,3.77
2019-03-16T20:30:55.940Z,4.43
2019-03-16T20:34:51.542Z,3.90
2019-03-16T20:38:00.660Z,5.83
2019-03-16T20:41:35.701Z,5.13
2019-03-16T20:52:35.720Z,2.90
2019-03-16T21:05:22.894Z,3.13
2019-03-16T21:07:54.634Z,6.33
2019-03-16T21:10:24.159Z,5.17
2019-03-16T21:12:56.402Z,5.13
2019-03-16T21:15:24.265Z,3.40
2019-03-16T21:17:51.930Z,5.57
2019-03-16T21:20:44.304Z,3.63
2019-03-16T21:23:28.520Z,4.17
2019-03-16T21:25:59.124Z,6.87
2019-03-16T21:28:29.608Z,6.67
2019-03-16T21:31:00.935Z,5.47
2019-03-16T21:33:30.044Z,6.53
2019-03-16T21:35:58.197Z,4.67
2019-03-16T21:38:26.016Z,5.80
2019-03-16T21:40:53.860Z,4.17
2019-03-16T21:43:23.895Z,5.17
2019-03-16T21:45:51.917Z,4.70
2019-03-16T21:48:19.680Z,3.40
2019-03-16T21:50:47.415Z,4.57
2019-03-16T21:53:27.219Z,3.50
2019-03-16T21:56:44.804Z,6.20
2019-03-16T21:59:26.469Z,3.80
2019-03-16T22:01:54.402Z,3.50
2019-03-16T22:04:22.060Z,4.80
2019-03-16T22:06:49.550Z,6.37
2019-03-16T22:09:19.690Z,4.87
2019-03-16T22:12:02.256Z,7.27
2019-03-16T22:14:29.797Z,4.57
2019-03-16T22:16:57.236Z,4.23
2019-03-16T22:19:24.630Z,5.37
2019-03-16T22:21:52.095Z,5.50
2019-03-16T22:24:21.140Z,6.67
2019-03-16T22:26:48.575Z,6.60
2019-03-16T22:29:15.976Z,4.77
2019-03-16T22:31:43.506Z,3.83
2019-03-16T22:34:10.870Z,3.93
2019-03-16T22:36:38.326Z,2.83
2019-03-16T22:39:07.038Z,5.07
2019-03-16T22:41:34.460Z,6.13
2019-03-16T22:44:01.825Z,5.50
2019-03-16T22:46:29.290Z,4.37
2019-03-16T22:48:56.861Z,5.20
2019-03-16T22:51:27.115Z,3.47
2019-03-16T22:53:54.705Z,6.13
2019-03-16T22:56:22.426Z,3.70
2019-03-16T22:58:49.828Z,5.83
2019-03-16T23:01:19.856Z,3.70
2019-03-16T23:03:47.445Z,3.80
2019-03-16T23:06:15.120Z,2.43
2019-03-16T23:08:42.764Z,4.67
2019-03-16T23:11:10.517Z,3.37
2019-03-16T23:13:38.257Z,3.43
2019-03-16T23:16:05.975Z,4.70
2019-03-16T23:18:33.340Z,3.50
2019-03-16T23:21:00.820Z,3.37
2019-03-16T23:23:28.224Z,5.90
2019-03-16T23:25:55.616Z,5.23
2019-03-16T23:28:22.994Z,4.30
2019-03-16T23:30:50.400Z,4.57
2019-03-16T23:33:17.826Z,3.03
2019-03-16T23:35:45.249Z,3.40
2019-03-16T23:38:13.002Z,2.97
2019-03-16T23:40:40.735Z,4.93
2019-03-16T23:43:08.551Z,4.60
2019-03-16T23:45:36.422Z,4.13
2019-03-16T23:48:04.625Z,4.43
2019-03-16T23:50:33.200Z,5.90
2019-03-16T23:53:00.900Z,3.90
2019-03-16T23:55:28.694Z,2.77
2019-03-16T23:57:56.626Z,2.20
